createdAt,value
2022-11-19T00:01:06.682Z,100768.75
2022-11-19T00:03:34.866Z,100767.94
2022-11-19T00:06:09.866Z,100775.22
2022-11-19T00:08:37.185Z,100770.06
2022-11-19T00:11:09.715Z,100765.47
2022-11-19T00:13:37.587Z,100784.63
2022-11-19T00:16:09.506Z,100770.06
2022-11-19T00:18:36.021Z,100791.66
2022-11-19T00:21:11.278Z,100780.88
2022-11-19T00:23:38.091Z,100784.16
2022-11-19T00:26:10.208Z,100779.78
2022-11-19T00:28:37.131Z,100784.38
2022-11-19T00:31:08.806Z,100774.66
2022-11-19T00:33:35.916Z,100778.97
2022-11-19T00:36:04.032Z,100782.50
2022-11-19T00:38:31.369Z,100790.59
2022-11-19T00:40:58.499Z,100783.56
2022-11-19T00:43:43.753Z,100789.78
2022-11-19T00:46:10.577Z,100798.97
2022-11-19T00:48:39.119Z,100802.47
2022-11-19T00:51:07.617Z,100797.34
2022-11-19T00:53:34.623Z,100797.34
2022-11-19T00:56:05.967Z,100795.69
2022-11-19T00:58:32.693Z,100795.69
2022-11-19T01:00:59.269Z,100794.38
2022-11-19T01:03:27.019Z,100800.59
2022-11-19T01:05:53.610Z,100802.25
2022-11-19T01:08:20.256Z,100810.56
2022-11-19T01:10:46.806Z,100811.38
2022-11-19T01:13:32.149Z,100814.34
2022-11-19T01:15:58.958Z,100826.22
2022-11-19T01:18:27.686Z,100818.13
2022-11-19T01:20:54.845Z,100828.09
2022-11-19T01:23:21.400Z,100823.25
2022-11-19T01:25:47.867Z,100833.25
2022-11-19T01:28:14.358Z,100839.72
2022-11-19T01:30:42.725Z,100838.88
2022-11-19T01:33:09.574Z,100840.78
2022-11-19T01:35:36.712Z,100835.13
2022-11-19T01:38:04.225Z,100837.84
2022-11-19T01:40:30.733Z,100844.06
2022-11-19T01:42:57.233Z,100843.25
2022-11-19T01:45:34.441Z,100838.88
2022-11-19T01:48:23.435Z,100848.88
2022-11-19T01:50:51.658Z,100843.47
2022-11-19T01:53:19.941Z,100851.56
2022-11-19T01:55:47.285Z,100841.03
2022-11-19T01:58:20.008Z,100849.94
2022-11-19T02:00:47.745Z,100842.91
2022-11-19T02:03:15.453Z,100846.44
2022-11-19T02:05:42.850Z,100848.31
2022-11-19T02:08:30.358Z,100856.97
2022-11-19T02:11:26.006Z,100859.94
2022-11-19T02:14:07.711Z,100861.81
2022-11-19T02:16:51.192Z,100865.34
2022-11-19T02:19:51.047Z,100861.00
2022-11-19T02:22:37.873Z,100864.25
2022-11-19T02:25:10.080Z,100872.63
2022-11-19T02:27:53.370Z,100872.63
2022-11-19T02:30:20.133Z,100872.63
2022-11-19T02:32:57.214Z,100879.91
2022-11-19T02:35:45.353Z,100886.13
2022-11-19T02:38:24.062Z,100887.16
2022-11-19T02:40:57.189Z,100879.31
2022-11-19T02:43:27.340Z,100880.97
2022-11-19T02:46:01.824Z,100893.41
2022-11-19T02:48:34.415Z,100883.91
2022-11-19T02:51:03.163Z,100891.75
2022-11-19T02:53:30.718Z,100903.63
2022-11-19T02:56:12.321Z,100902.56
2022-11-19T02:59:09.673Z,100894.97
2022-11-19T03:01:59.795Z,100902.56
2022-11-19T03:04:30.285Z,100899.84
2022-11-19T03:07:09.251Z,100902.81
2022-11-19T03:09:41.806Z,100906.31
2022-11-19T03:12:20.938Z,100903.63
2022-11-19T03:15:18.518Z,100892.28
2022-11-19T03:18:01.297Z,100894.13
2022-11-19T03:20:42.211Z,100901.69
2022-11-19T03:23:39.578Z,100899.78
2022-11-19T03:26:17.758Z,100899.78
2022-11-19T03:28:47.398Z,100906.81
2022-11-19T03:31:17.035Z,100910.59
2022-11-19T03:33:46.452Z,100902.22
2022-11-19T03:36:18.081Z,100920.09
2022-11-19T03:38:49.388Z,100907.06
2022-11-19T03:41:18.710Z,100910.00
2022-11-19T03:43:51.366Z,100912.22
2022-11-19T03:46:20.111Z,100917.88
2022-11-19T03:48:51.130Z,100911.41
2022-11-19T03:51:28.673Z,100919.75
2022-11-19T03:53:55.217Z,100914.59
2022-11-19T03:56:26.081Z,100920.00
2022-11-19T03:58:53.935Z,100941.59
2022-11-19T04:01:21.531Z,100929.75
2022-11-19T04:04:08.006Z,100936.19
2022-11-19T04:06:34.445Z,100935.38
2022-11-19T04:09:00.898Z,100941.59
2022-11-19T04:13:52.745Z,100943.47
2022-11-19T04:16:19.254Z,100946.19
2022-11-19T04:18:45.949Z,100949.69
2022-11-19T04:21:12.579Z,100948.88
2022-11-19T04:23:39.073Z,100952.06
2022-11-19T04:26:05.720Z,100953.72
2022-11-19T04:28:32.201Z,100950.19
2022-11-19T04:30:58.647Z,100951.03
2022-11-19T04:33:25.102Z,100965.34
2022-11-19T04:35:51.562Z,100966.97
2022-11-19T04:38:18.063Z,100965.34
2022-11-19T04:40:44.652Z,100979.06
2022-11-19T04:43:11.132Z,100972.84
2022-11-19T04:45:37.620Z,100972.03
2022-11-19T04:48:04.333Z,100983.41
2022-11-19T04:50:30.914Z,100975.53
2022-11-19T04:52:58.711Z,100989.88
2022-11-19T04:55:25.197Z,100987.66
2022-11-19T04:57:52.957Z,101001.19
2022-11-19T05:00:19.730Z,101004.69
2022-11-19T05:02:46.264Z,101006.56
2022-11-19T05:05:12.788Z,100994.94
2022-11-19T05:07:39.364Z,101001.19
2022-11-19T05:10:06.213Z,101007.63
2022-11-19T05:12:32.640Z,100993.88
2022-11-19T05:14:59.179Z,100994.94
2022-11-19T05:17:25.753Z,100996.34
2022-11-19T05:19:52.188Z,101003.88
2022-11-19T05:22:18.701Z,101005.97
2022-11-19T05:24:45.181Z,101005.72
2022-11-19T05:27:11.707Z,101017.84
2022-11-19T05:29:38.264Z,101025.13
2022-11-19T05:32:04.992Z,101024.28
2022-11-19T05:34:31.541Z,101019.75
2022-11-19T05:36:57.980Z,101031.56
2022-11-19T05:39:24.825Z,101032.38
2022-11-19T05:41:51.522Z,101045.06
2022-11-19T05:44:18.376Z,101037.78
2022-11-19T05:46:44.926Z,101042.38
2022-11-19T05:49:11.878Z,101050.47
2022-11-19T05:51:38.348Z,101059.16
2022-11-19T05:54:04.943Z,101045.06
2022-11-19T05:56:31.436Z,101047.78
2022-11-19T05:58:57.938Z,101051.53
2022-11-19T06:01:29.072Z,101052.63
2022-11-19T06:03:55.859Z,101055.31
2022-11-19T06:06:22.828Z,101065.03
2022-11-19T06:08:49.986Z,101058.00
2022-11-19T06:11:35.456Z,101065.28
2022-11-19T06:14:02.348Z,101061.78
2022-11-19T06:16:28.953Z,101071.50
2022-11-19T06:18:55.426Z,101074.22
2022-11-19T06:21:21.953Z,101075.84
2022-11-19T06:23:48.498Z,101072.56
2022-11-19T06:26:28.564Z,101080.69
2022-11-19T06:28:55.867Z,101075.28
2022-11-19T06:31:23.043Z,101087.94
2022-11-19T06:33:50.181Z,101091.69
2022-11-19T06:36:16.772Z,101094.66
2022-11-19T06:38:43.366Z,101096.28
2022-11-19T06:41:09.910Z,101093.59
2022-11-19T06:43:36.454Z,101111.88
2022-11-19T06:46:03.004Z,101108.38
2022-11-19T06:48:29.512Z,101118.13
2022-11-19T06:50:56.567Z,101112.47
2022-11-19T06:53:23.342Z,101121.66
2022-11-19T06:55:59.416Z,101127.03
2022-11-19T06:58:26.238Z,101128.06
2022-11-19T07:00:52.756Z,101129.97
2022-11-19T07:03:19.861Z,101138.88
2022-11-19T07:05:50.143Z,101142.44
2022-11-19T07:08:17.091Z,101137.50
2022-11-19T07:10:43.702Z,101139.94
2022-11-19T07:13:10.174Z,101140.41
2022-11-19T07:15:36.628Z,101146.63
2022-11-19T07:18:03.125Z,101143.72
2022-11-19T07:20:30.020Z,101149.34
2022-11-19T07:22:59.342Z,101157.22
2022-11-19T07:25:26.930Z,101161.78
2022-11-19T07:27:53.710Z,101161.19
2022-11-19T07:30:20.311Z,101169.06
2022-11-19T07:32:46.808Z,101174.69
2022-11-19T07:35:13.278Z,101176.09
2022-11-19T07:37:39.790Z,101165.53
2022-11-19T07:40:06.816Z,101176.31
2022-11-19T07:42:51.571Z,101175.28
2022-11-19T07:45:19.780Z,101177.66
2022-11-19T07:47:46.552Z,101183.03
2022-11-19T07:50:13.159Z,101187.03
2022-11-19T07:52:39.778Z,101185.75
2022-11-19T07:55:07.012Z,101183.03
2022-11-19T07:57:33.704Z,101185.97
2022-11-19T08:00:00.309Z,101182.44
2022-11-19T08:02:26.933Z,101197.00
2022-11-19T08:04:53.438Z,101198.06
2022-11-19T08:07:20.087Z,101198.41
2022-11-19T08:09:46.660Z,101200.31
2022-11-19T08:12:13.214Z,101213.19
2022-11-19T08:14:39.755Z,101215.31
2022-11-19T08:17:38.432Z,101219.41
2022-11-19T08:20:05.456Z,101215.91
2022-11-19T08:22:31.917Z,101215.91
2022-11-19T08:24:58.427Z,101224.47
2022-11-19T08:27:25.385Z,101222.00
2022-11-19T08:29:51.911Z,101225.75
2022-11-19T08:32:18.444Z,101232.56
2022-11-19T08:34:45.140Z,101233.38
2022-11-19T08:37:13.579Z,101250.63
2022-11-19T08:39:40.531Z,101246.06
2022-11-19T08:42:27.266Z,101243.34
2022-11-19T08:44:55.015Z,101249.81
2022-11-19T08:47:21.776Z,101240.31
2022-11-19T08:49:48.258Z,101246.53
2022-11-19T08:52:14.785Z,101243.25
2022-11-19T08:54:41.249Z,101248.19
2022-11-19T08:57:07.828Z,101249.22
2022-11-19T08:59:34.634Z,101241.94
2022-11-19T09:02:01.130Z,101248.66
2022-11-19T09:04:27.641Z,101249.22
2022-11-19T09:06:54.083Z,101247.59
2022-11-19T09:09:20.711Z,101255.69
2022-11-19T09:11:47.205Z,101250.28
2022-11-19T09:14:13.709Z,101259.44
2022-11-19T09:16:40.229Z,101261.09
2022-11-19T09:19:06.745Z,101264.84
2022-11-19T09:21:33.227Z,101261.31
2022-11-19T09:23:59.713Z,101262.16
2022-11-19T09:26:26.165Z,101264.84
2022-11-19T09:28:52.713Z,101269.63
2022-11-19T09:31:20.296Z,101270.47
2022-11-19T09:33:50.437Z,101268.81
2022-11-19T09:36:18.437Z,101271.31
2022-11-19T09:38:45.388Z,101288.31
2022-11-19T09:41:17.783Z,101286.91
2022-11-19T09:43:59.533Z,101291.22
2022-11-19T09:46:39.318Z,101301.00
2022-11-19T09:49:18.591Z,101305.78
2022-11-19T09:51:53.052Z,101296.88
2022-11-19T09:54:22.028Z,101307.44
2022-11-19T09:56:51.741Z,101314.94
2022-11-19T09:59:34.096Z,101312.25
2022-11-19T10:02:00.603Z,101310.59
2022-11-19T10:04:31.557Z,101325.97
2022-11-19T10:07:35.218Z,101322.44
2022-11-19T10:10:34.181Z,101321.63
2022-11-19T10:13:12.713Z,101321.38
2022-11-19T10:16:18.438Z,101319.28
2022-11-19T10:19:31.156Z,101303.56
2022-11-19T10:22:03.851Z,101311.44
2022-11-19T10:24:44.688Z,101323.50
2022-11-19T10:27:27.264Z,101303.78
2022-11-19T10:29:58.243Z,101312.72
2022-11-19T10:32:38.948Z,101310.81
2022-11-19T10:35:16.627Z,101322.69
2022-11-19T10:37:56.149Z,101315.41
2022-11-19T10:40:25.437Z,101312.94
2022-11-19T10:43:01.171Z,101313.78
2022-11-19T10:45:29.640Z,101311.06
2022-11-19T10:48:31.102Z,101313.78
2022-11-19T10:50:59.698Z,101307.31
2022-11-19T10:53:38.943Z,101315.06
2022-11-19T10:56:12.258Z,101306.13
2022-11-19T10:59:06.609Z,101295.09
2022-11-19T11:01:39.571Z,101305.69
2022-11-19T11:04:12.080Z,101310.22
2022-11-19T11:07:01.686Z,101307.78
2022-11-19T11:09:39.334Z,101323.16
2022-11-19T11:12:36.624Z,101315.88
2022-11-19T11:15:25.751Z,101325.84
2022-11-19T11:18:07.518Z,101328.53
2022-11-19T11:20:36.309Z,101322.31
2022-11-19T11:23:11.608Z,101319.38
2022-11-19T11:25:40.152Z,101315.31
2022-11-19T11:28:16.260Z,101318.56
2022-11-19T11:31:09.232Z,101309.66
2022-11-19T11:33:39.561Z,101306.97
2022-11-19T11:36:10.791Z,101302.84
2022-11-19T11:38:42.391Z,101309.06
2022-11-19T11:42:03.717Z,101305.31
2022-11-19T11:44:05.930Z,101326.31
2022-11-19T11:46:38.510Z,101319.03
2022-11-19T11:49:12.731Z,101311.75
2022-11-19T11:51:39.880Z,101317.41
2022-11-19T11:54:20.815Z,101326.91
2022-11-19T11:56:47.703Z,101332.53
2022-11-19T11:59:14.313Z,101331.50
2022-11-19T12:01:53.026Z,101321.72
2022-11-19T12:04:19.622Z,101323.59
2022-11-19T12:07:12.673Z,101321.72
2022-11-19T12:10:03.490Z,101307.66
2022-11-19T12:12:42.655Z,101317.41
2022-11-19T12:15:09.045Z,101316.56
2022-11-19T12:17:48.244Z,101310.34
2022-11-19T12:20:38.766Z,101296.25
2022-11-19T12:23:20.151Z,101298.75
2022-11-19T12:26:12.441Z,101296.88
2022-11-19T12:29:22.863Z,101302.25
2022-11-19T12:31:49.449Z,101303.28
2022-11-19T12:34:34.177Z,101296.25
2022-11-19T12:37:19.535Z,101291.47
2022-11-19T12:39:53.737Z,101296.25
2022-11-19T12:42:44.054Z,101296.06
2022-11-19T12:45:36.838Z,101301.44
2022-11-19T12:48:37.711Z,101295.41
2022-11-19T12:51:25.583Z,101309.72
2022-11-19T12:54:25.352Z,101306.84
2022-11-19T12:57:28.828Z,101309.31
2022-11-19T13:00:11.091Z,101308.69
2022-11-19T13:03:06.699Z,101317.00
2022-11-19T13:05:38.152Z,101324.03
2022-11-19T13:08:12.079Z,101324.03
2022-11-19T13:10:42.976Z,101320.75
2022-11-19T13:13:14.630Z,101318.88
2022-11-19T13:16:00.045Z,101317.25
2022-11-19T13:18:31.136Z,101312.88
2022-11-19T13:21:07.503Z,101320.75
2022-11-19T13:23:40.909Z,101320.75
2022-11-19T13:26:13.097Z,101317.25
2022-11-19T13:28:47.064Z,101324.28
2022-11-19T13:31:22.814Z,101311.03
2022-11-19T13:34:06.015Z,101315.38
2022-11-19T13:36:41.652Z,101315.38
2022-11-19T13:39:23.183Z,101306.66
2022-11-19T13:42:10.589Z,101306.66
2022-11-19T13:44:44.048Z,101315.81
2022-11-19T13:47:42.131Z,101319.69
2022-11-19T13:50:32.665Z,101322.66
2022-11-19T13:53:14.058Z,101312.06
2022-11-19T13:55:42.492Z,101316.66
2022-11-19T13:58:17.863Z,101314.75
2022-11-19T14:01:00.331Z,101322.84
2022-11-19T14:03:47.347Z,101328.25
2022-11-19T14:06:35.809Z,101317.47
2022-11-19T14:09:37.589Z,101332.00
2022-11-19T14:12:25.634Z,101327.69
2022-11-19T14:15:43.822Z,101327.69
2022-11-19T14:18:51.557Z,101313.38
2022-11-19T14:21:42.537Z,101325.19
2022-11-19T14:24:46.028Z,101316.28
2022-11-19T14:27:29.287Z,101321.69
2022-11-19T14:30:04.970Z,101325.81
2022-11-19T14:32:35.227Z,101327.06
2022-11-19T14:35:01.725Z,101321.94
2022-11-19T14:37:41.470Z,101320.88
2022-11-19T14:40:10.910Z,101329.56
2022-11-19T14:43:17.371Z,101321.69
2022-11-19T14:46:05.277Z,101315.22
2022-11-19T14:48:34.038Z,101316.28
2022-11-19T14:51:18.216Z,101338.13
2022-11-19T14:53:52.467Z,101327.31
2022-11-19T14:56:21.953Z,101343.25
2022-11-19T14:58:56.201Z,101344.53
2022-11-19T15:01:24.040Z,101340.81
2022-11-19T15:04:02.706Z,101335.41
2022-11-19T15:06:35.308Z,101331.91
2022-11-19T15:09:02.231Z,101331.91
2022-11-19T15:12:06.057Z,101328.34
2022-11-19T15:14:36.991Z,101332.94
2022-11-19T15:17:06.692Z,101336.22
2022-11-19T15:20:04.452Z,101332.09
2022-11-19T15:22:50.935Z,101337.88
2022-11-19T15:25:20.510Z,101337.28
2022-11-19T15:27:55.068Z,101338.94
2022-11-19T15:30:40.805Z,101337.28
2022-11-19T15:33:16.273Z,101343.72
2022-11-19T15:36:05.523Z,101341.84
2022-11-19T15:38:39.760Z,101346.41
2022-11-19T15:41:12.762Z,101342.91
2022-11-19T15:43:53.609Z,101354.50
2022-11-19T15:46:30.164Z,101336.94
2022-11-19T15:49:04.771Z,101349.34
2022-11-19T15:51:49.869Z,101339.63
2022-11-19T15:54:16.470Z,101347.72
2022-11-19T15:56:50.358Z,101349.59
2022-11-19T15:59:20.076Z,101355.56
2022-11-19T16:02:01.078Z,101353.94
2022-11-19T16:04:39.054Z,101352.06
2022-11-19T16:07:08.976Z,101356.84
2022-11-19T16:09:36.059Z,101356.03
2022-11-19T16:12:21.786Z,101361.22
2022-11-19T16:15:11.304Z,101365.78
2022-11-19T16:17:46.484Z,101373.88
2022-11-19T16:20:13.048Z,101380.09
2022-11-19T16:22:45.782Z,101370.94
2022-11-19T16:25:25.385Z,101371.19
2022-11-19T16:27:55.551Z,101377.59
2022-11-19T16:30:25.626Z,101378.91
2022-11-19T16:32:56.931Z,101375.16
2022-11-19T16:35:27.345Z,101381.38
2022-11-19T16:37:55.408Z,101370.56
2022-11-19T16:40:22.929Z,101376.78
2022-11-19T16:42:53.743Z,101379.50
2022-11-19T16:45:25.281Z,101368.34
2022-11-19T16:48:31.945Z,101384.31
2022-11-19T16:51:26.671Z,101376.22
2022-11-19T16:53:53.383Z,101378.91
2022-11-19T16:56:19.945Z,101378.06
2022-11-19T16:58:46.957Z,101383.69
2022-11-19T17:01:17.759Z,101381.00
2022-11-19T17:03:45.203Z,101385.94
2022-11-19T17:06:24.274Z,101372.91
2022-11-19T17:08:58.713Z,101382.44
2022-11-19T17:12:09.086Z,101378.06
2022-11-19T17:14:35.579Z,101373.97
2022-11-19T17:17:03.419Z,101372.91
2022-11-19T17:19:34.952Z,101373.53
2022-11-19T17:22:03.076Z,101382.63
2022-11-19T17:24:40.412Z,101380.41
2022-11-19T17:27:11.396Z,101383.09
2022-11-19T17:29:37.924Z,101382.88
2022-11-19T17:32:04.591Z,101383.09
2022-11-19T17:34:33.810Z,101388.28
2022-11-19T17:37:00.437Z,101384.16
2022-11-19T17:39:27.104Z,101380.63
2022-11-19T17:42:15.283Z,101380.41
2022-11-19T17:44:41.881Z,101387.47
2022-11-19T17:47:22.762Z,101394.13
2022-11-19T17:49:50.436Z,101389.53
2022-11-19T17:52:29.212Z,101395.75
2022-11-19T17:55:10.803Z,101400.13
2022-11-19T17:57:42.343Z,101397.88
2022-11-19T18:00:10.441Z,101396.00
2022-11-19T18:02:37.118Z,101398.69
2022-11-19T18:05:15.778Z,101396.25
2022-11-19T18:07:42.489Z,101393.06
2022-11-19T18:10:09.824Z,101397.63
2022-11-19T18:12:36.441Z,101386.28
2022-11-19T18:15:04.540Z,101389.19
2022-11-19T18:17:31.122Z,101388.16
2022-11-19T18:19:57.613Z,101386.03
2022-11-19T18:22:24.191Z,101385.47
2022-11-19T18:24:51.760Z,101386.28
2022-11-19T18:27:18.326Z,101394.56
2022-11-19T18:29:45.231Z,101392.94
2022-11-19T18:32:15.253Z,101381.34
2022-11-19T18:34:41.754Z,101387.53
2022-11-19T18:37:08.730Z,101381.09
2022-11-19T18:39:35.490Z,101379.22
2022-11-19T18:42:02.045Z,101378.38
2022-11-19T18:44:34.623Z,101376.16
2022-11-19T18:47:06.783Z,101378.63
2022-11-19T18:49:34.944Z,101381.91
2022-11-19T18:52:02.495Z,101379.69
2022-11-19T18:54:29.141Z,101384.03
2022-11-19T18:56:55.724Z,101387.78
2022-11-19T18:59:23.007Z,101391.31
2022-11-19T19:01:52.163Z,101382.38
2022-11-19T19:04:19.112Z,101386.94
2022-11-19T19:06:45.631Z,101388.81
2022-11-19T19:09:12.188Z,101389.41
2022-11-19T19:11:57.183Z,101390.47
2022-11-19T19:14:23.725Z,101395.03
2022-11-19T19:16:50.970Z,101393.38
2022-11-19T19:19:19.996Z,101400.66
2022-11-19T19:21:47.502Z,101407.69
2022-11-19T19:24:14.607Z,101407.69
2022-11-19T19:26:41.356Z,101404.19
2022-11-19T19:29:08.151Z,101404.19
2022-11-19T19:31:35.011Z,101406.88
2022-11-19T19:34:01.567Z,101407.13
2022-11-19T19:36:28.133Z,101411.69
2022-11-19T19:38:54.688Z,101410.63
2022-11-19T19:41:23.622Z,101395.50
2022-11-19T19:43:50.247Z,101399.22
2022-11-19T19:46:19.019Z,101401.72
2022-11-19T19:48:48.300Z,101403.00
2022-11-19T19:51:16.504Z,101398.41
2022-11-19T19:53:43.662Z,101415.41
2022-11-19T19:56:10.082Z,101402.78
2022-11-19T19:58:38.263Z,101408.38
2022-11-19T20:01:08.735Z,101411.69
2022-11-19T20:03:36.023Z,101421.06
2022-11-19T20:06:04.439Z,101424.56
2022-11-19T20:08:31.353Z,101438.66
2022-11-19T20:11:03.023Z,101421.28
2022-11-19T20:13:31.918Z,101424.56
2022-11-19T20:16:04.733Z,101419.41
2022-11-19T20:18:32.632Z,101423.75
2022-11-19T20:21:00.681Z,101417.75
2022-11-19T20:23:30.680Z,101422.94
2022-11-19T20:26:07.965Z,101422.94
2022-11-19T20:28:34.750Z,101423.97
2022-11-19T20:31:19.439Z,101426.06
2022-11-19T20:33:47.852Z,101426.69
2022-11-19T20:36:15.771Z,101416.09
2022-11-19T20:38:45.891Z,101418.22
2022-11-19T20:41:32.814Z,101425.25
2022-11-19T20:44:20.584Z,101424.19
2022-11-19T20:46:52.068Z,101433.34
2022-11-19T20:49:20.594Z,101436.03
2022-11-19T20:51:47.836Z,101431.47
2022-11-19T20:54:14.579Z,101429.81
2022-11-19T20:56:41.957Z,101425.47
2022-11-19T20:59:09.310Z,101427.94
2022-11-19T21:01:36.973Z,101426.53
2022-11-19T21:04:03.960Z,101421.75
2022-11-19T21:06:31.058Z,101423.63
2022-11-19T21:08:57.620Z,101419.03
2022-11-19T21:11:24.630Z,101408.00
2022-11-19T21:13:51.216Z,101419.50
2022-11-19T21:16:25.922Z,101423.00
2022-11-19T21:18:52.886Z,101417.84
2022-11-19T21:21:20.976Z,101417.38
2022-11-19T21:23:48.304Z,101422.44
2022-11-19T21:26:18.201Z,101416.78
2022-11-19T21:28:46.936Z,101428.63
2022-11-19T21:31:15.479Z,101435.06
2022-11-19T21:33:41.997Z,101424.28
2022-11-19T21:36:08.893Z,101420.75
2022-11-19T21:38:35.817Z,101428.63
2022-11-19T21:41:02.617Z,101426.97
2022-11-19T21:43:30.595Z,101425.56
2022-11-19T21:45:57.716Z,101437.19
2022-11-19T21:48:25.532Z,101437.19
2022-11-19T21:50:52.680Z,101430.72
2022-11-19T21:53:19.749Z,101425.34
2022-11-19T21:55:46.600Z,101433.41
2022-11-19T21:58:14.930Z,101426.38
2022-11-19T22:00:42.205Z,101423.69
2022-11-19T22:03:08.809Z,101433.66
2022-11-19T22:05:35.793Z,101439.25
2022-11-19T22:08:02.432Z,101426.59
2022-11-19T22:10:29.789Z,101430.97
2022-11-19T22:12:59.665Z,101421.81
2022-11-19T22:15:26.705Z,101437.38
2022-11-19T22:17:53.702Z,101434.94
2022-11-19T22:20:20.282Z,101429.53
2022-11-19T22:22:46.832Z,101425.78
2022-11-19T22:25:13.894Z,101427.06
2022-11-19T22:27:41.687Z,101419.00
2022-11-19T22:30:10.216Z,101417.31
2022-11-19T22:32:37.276Z,101407.34
2022-11-19T22:35:04.689Z,101407.16
2022-11-19T22:37:31.202Z,101414.41
2022-11-19T22:39:57.684Z,101413.34
2022-11-19T22:42:24.213Z,101410.66
2022-11-19T22:44:51.371Z,101403.63
2022-11-19T22:47:18.146Z,101400.94
2022-11-19T22:49:44.612Z,101393.88
2022-11-19T22:52:11.145Z,101392.84
2022-11-19T22:54:41.584Z,101392.22
2022-11-19T22:57:08.303Z,101405.50
2022-11-19T22:59:35.016Z,101397.88
2022-11-19T23:02:01.556Z,101392.22
2022-11-19T23:04:28.972Z,101395.16
2022-11-19T23:06:55.682Z,101389.53
2022-11-19T23:09:22.578Z,101385.44
2022-11-19T23:12:07.961Z,101381.69
2022-11-19T23:14:34.441Z,101384.38
2022-11-19T23:17:00.923Z,101377.13
2022-11-19T23:19:27.597Z,101376.50
2022-11-19T23:21:54.069Z,101380.06
2022-11-19T23:24:20.661Z,101374.06
2022-11-19T23:26:47.144Z,101381.91
2022-11-19T23:29:13.597Z,101380.25
2022-11-19T23:31:40.625Z,101376.50
2022-11-19T23:34:07.849Z,101378.63
2022-11-19T23:36:37.662Z,101385.44
2022-11-19T23:39:05.728Z,101383.78
2022-11-19T23:41:33.824Z,101372.41
2022-11-19T23:44:00.665Z,101376.75
2022-11-19T23:46:29.664Z,101368.91
2022-11-19T23:48:57.464Z,101368.06
2022-11-19T23:51:31.759Z,101379.91
2022-11-19T23:53:58.855Z,101374.28
2022-11-19T23:56:26.505Z,101378.00
2022-11-19T23:58:53.309Z,101371.59
